sensor_id;sensor_type;location;lat;lon;timestamp;P1;durP1;ratioP1;P2;durP2;ratioP2
66342;SDS011;53144;51.524;5.080;2023-09-18T00:00:08;22.23;;;17.20;;
66342;SDS011;53144;51.524;5.080;2023-09-18T00:02:36;29.48;;;17.60;;
66342;SDS011;53144;51.524;5.080;2023-09-18T00:05:01;18.95;;;16.02;;
66342;SDS011;53144;51.524;5.080;2023-09-18T00:07:27;22.75;;;17.00;;
66342;SDS011;53144;51.524;5.080;2023-09-18T00:09:53;20.40;;;15.82;;
66342;SDS011;53144;51.524;5.080;2023-09-18T00:12:18;20.80;;;16.45;;
66342;SDS011;53144;51.524;5.080;2023-09-18T00:14:46;17.77;;;15.32;;
66342;SDS011;53144;51.524;5.080;2023-09-18T00:17:13;19.27;;;14.68;;
66342;SDS011;53144;51.524;5.080;2023-09-18T00:19:38;19.00;;;15.05;;
66342;SDS011;53144;51.524;5.080;2023-09-18T00:22:03;19.10;;;15.75;;
66342;SDS011;53144;51.524;5.080;2023-09-18T00:24:29;19.70;;;14.90;;
66342;SDS011;53144;51.524;5.080;2023-09-18T00:26:54;16.92;;;15.13;;
66342;SDS011;53144;51.524;5.080;2023-09-18T00:29:20;21.20;;;15.30;;
66342;SDS011;53144;51.524;5.080;2023-09-18T00:31:45;20.63;;;15.27;;
66342;SDS011;53144;51.524;5.080;2023-09-18T00:34:12;18.55;;;14.48;;
66342;SDS011;53144;51.524;5.080;2023-09-18T00:36:37;18.70;;;15.05;;
66342;SDS011;53144;51.524;5.080;2023-09-18T00:39:03;21.17;;;15.43;;
66342;SDS011;53144;51.524;5.080;2023-09-18T00:41:28;19.48;;;15.70;;
66342;SDS011;53144;51.524;5.080;2023-09-18T00:43:54;20.17;;;15.65;;
66342;SDS011;53144;51.524;5.080;2023-09-18T00:46:19;17.80;;;14.73;;
66342;SDS011;53144;51.524;5.080;2023-09-18T00:48:45;19.45;;;14.90;;
66342;SDS011;53144;51.524;5.080;2023-09-18T00:51:11;17.23;;;14.75;;
66342;SDS011;53144;51.524;5.080;2023-09-18T00:53:38;23.08;;;15.40;;
66342;SDS011;53144;51.524;5.080;2023-09-18T00:56:08;17.95;;;15.13;;
66342;SDS011;53144;51.524;5.080;2023-09-18T00:58:33;17.15;;;14.80;;
66342;SDS011;53144;51.524;5.080;2023-09-18T01:00:58;19.65;;;15.30;;
66342;SDS011;53144;51.524;5.080;2023-09-18T01:03:25;16.05;;;14.35;;
66342;SDS011;53144;51.524;5.080;2023-09-18T01:05:50;18.65;;;14.25;;
66342;SDS011;53144;51.524;5.080;2023-09-18T01:08:15;24.48;;;14.93;;
66342;SDS011;53144;51.524;5.080;2023-09-18T01:10:48;18.00;;;13.68;;
66342;SDS011;53144;51.524;5.080;2023-09-18T01:13:41;18.98;;;14.68;;
66342;SDS011;53144;51.524;5.080;2023-09-18T01:16:20;21.13;;;14.40;;
66342;SDS011;53144;51.524;5.080;2023-09-18T01:18:52;18.17;;;15.13;;
66342;SDS011;53144;51.524;5.080;2023-09-18T01:21:20;16.33;;;12.93;;
66342;SDS011;53144;51.524;5.080;2023-09-18T01:23:46;16.58;;;13.82;;
66342;SDS011;53144;51.524;5.080;2023-09-18T01:26:12;16.70;;;14.00;;
66342;SDS011;53144;51.524;5.080;2023-09-18T01:28:37;18.13;;;13.05;;
66342;SDS011;53144;51.524;5.080;2023-09-18T01:31:02;18.73;;;13.88;;
66342;SDS011;53144;51.524;5.080;2023-09-18T01:33:28;17.27;;;13.63;;
66342;SDS011;53144;51.524;5.080;2023-09-18T01:36:14;16.27;;;13.57;;
66342;SDS011;53144;51.524;5.080;2023-09-18T01:38:42;17.73;;;13.77;;
66342;SDS011;53144;51.524;5.080;2023-09-18T01:41:08;17.20;;;13.32;;
66342;SDS011;53144;51.524;5.080;2023-09-18T01:43:34;15.77;;;12.98;;
66342;SDS011;53144;51.524;5.080;2023-09-18T01:46:00;15.02;;;12.07;;
66342;SDS011;53144;51.524;5.080;2023-09-18T01:48:26;13.60;;;12.20;;
66342;SDS011;53144;51.524;5.080;2023-09-18T01:50:51;16.77;;;11.60;;
66342;SDS011;53144;51.524;5.080;2023-09-18T01:53:17;15.07;;;11.45;;
66342;SDS011;53144;51.524;5.080;2023-09-18T01:55:42;14.40;;;11.93;;
66342;SDS011;53144;51.524;5.080;2023-09-18T01:58:09;13.18;;;11.00;;
66342;SDS011;53144;51.524;5.080;2023-09-18T02:00:34;11.88;;;10.68;;
66342;SDS011;53144;51.524;5.080;2023-09-18T02:02:59;14.88;;;11.35;;
66342;SDS011;53144;51.524;5.080;2023-09-18T02:05:25;13.60;;;10.77;;
66342;SDS011;53144;51.524;5.080;2023-09-18T02:07:50;14.35;;;11.00;;
66342;SDS011;53144;51.524;5.080;2023-09-18T02:10:16;15.45;;;10.57;;
66342;SDS011;53144;51.524;5.080;2023-09-18T02:12:41;12.52;;;10.38;;
66342;SDS011;53144;51.524;5.080;2023-09-18T02:15:07;13.98;;;10.38;;
66342;SDS011;53144;51.524;5.080;2023-09-18T02:17:35;15.75;;;9.80;;
66342;SDS011;53144;51.524;5.080;2023-09-18T02:20:00;13.18;;;8.77;;
66342;SDS011;53144;51.524;5.080;2023-09-18T02:22:31;15.40;;;9.65;;
66342;SDS011;53144;51.524;5.080;2023-09-18T02:24:57;12.57;;;9.00;;
66342;SDS011;53144;51.524;5.080;2023-09-18T02:27:23;12.63;;;8.05;;
66342;SDS011;53144;51.524;5.080;2023-09-18T02:29:49;11.60;;;8.07;;
66342;SDS011;53144;51.524;5.080;2023-09-18T02:32:15;10.68;;;8.70;;
66342;SDS011;53144;51.524;5.080;2023-09-18T02:34:41;11.52;;;7.57;;
66342;SDS011;53144;51.524;5.080;2023-09-18T02:37:06;12.40;;;7.60;;
66342;SDS011;53144;51.524;5.080;2023-09-18T02:39:31;13.30;;;7.13;;
66342;SDS011;53144;51.524;5.080;2023-09-18T02:41:57;15.68;;;8.10;;
66342;SDS011;53144;51.524;5.080;2023-09-18T02:44:23;9.93;;;7.43;;
66342;SDS011;53144;51.524;5.080;2023-09-18T02:46:48;12.55;;;7.68;;
66342;SDS011;53144;51.524;5.080;2023-09-18T02:49:14;13.98;;;7.82;;
66342;SDS011;53144;51.524;5.080;2023-09-18T02:51:39;10.40;;;7.22;;
66342;SDS011;53144;51.524;5.080;2023-09-18T02:54:04;14.25;;;7.63;;
66342;SDS011;53144;51.524;5.080;2023-09-18T02:56:30;10.60;;;7.72;;
66342;SDS011;53144;51.524;5.080;2023-09-18T02:58:55;11.45;;;7.75;;
66342;SDS011;53144;51.524;5.080;2023-09-18T03:01:21;12.10;;;7.85;;
66342;SDS011;53144;51.524;5.080;2023-09-18T03:03:46;14.13;;;7.07;;
66342;SDS011;53144;51.524;5.080;2023-09-18T03:06:11;10.15;;;7.78;;
66342;SDS011;53144;51.524;5.080;2023-09-18T03:08:38;14.40;;;7.47;;
66342;SDS011;53144;51.524;5.080;2023-09-18T03:11:10;9.73;;;7.35;;
66342;SDS011;53144;51.524;5.080;2023-09-18T03:13:36;10.90;;;7.03;;
66342;SDS011;53144;51.524;5.080;2023-09-18T03:16:01;16.35;;;7.30;;
66342;SDS011;53144;51.524;5.080;2023-09-18T03:18:27;10.93;;;7.57;;
66342;SDS011;53144;51.524;5.080;2023-09-18T03:20:52;9.50;;;7.93;;
66342;SDS011;53144;51.524;5.080;2023-09-18T03:23:17;11.23;;;8.40;;
66342;SDS011;53144;51.524;5.080;2023-09-18T03:25:43;11.98;;;7.93;;
66342;SDS011;53144;51.524;5.080;2023-09-18T03:28:08;9.77;;;7.75;;
66342;SDS011;53144;51.524;5.080;2023-09-18T03:30:34;12.90;;;8.32;;
66342;SDS011;53144;51.524;5.080;2023-09-18T03:32:59;10.48;;;8.25;;
66342;SDS011;53144;51.524;5.080;2023-09-18T03:35:24;14.63;;;9.00;;
66342;SDS011;53144;51.524;5.080;2023-09-18T03:37:51;9.45;;;7.50;;
66342;SDS011;53144;51.524;5.080;2023-09-18T03:40:19;10.77;;;7.97;;
66342;SDS011;53144;51.524;5.080;2023-09-18T03:42:45;13.68;;;7.82;;
66342;SDS011;53144;51.524;5.080;2023-09-18T03:45:11;12.43;;;7.55;;
66342;SDS011;53144;51.524;5.080;2023-09-18T03:47:37;10.25;;;7.40;;
66342;SDS011;53144;51.524;5.080;2023-09-18T03:52:33;10.00;;;7.30;;
66342;SDS011;53144;51.524;5.080;2023-09-18T03:54:58;10.45;;;7.40;;
66342;SDS011;53144;51.524;5.080;2023-09-18T03:57:24;13.73;;;7.40;;
66342;SDS011;53144;51.524;5.080;2023-09-18T03:59:49;11.65;;;7.80;;
66342;SDS011;53144;51.524;5.080;2023-09-18T04:02:15;9.75;;;7.55;;
66342;SDS011;53144;51.524;5.080;2023-09-18T04:04:41;10.43;;;6.95;;
66342;SDS011;53144;51.524;5.080;2023-09-18T04:07:06;10.20;;;7.75;;
66342;SDS011;53144;51.524;5.080;2023-09-18T04:09:32;11.18;;;7.40;;
66342;SDS011;53144;51.524;5.080;2023-09-18T04:11:59;8.32;;;7.22;;
66342;SDS011;53144;51.524;5.080;2023-09-18T04:14:25;12.73;;;7.90;;
66342;SDS011;53144;51.524;5.080;2023-09-18T04:16:51;10.55;;;7.40;;
66342;SDS011;53144;51.524;5.080;2023-09-18T04:19:16;11.02;;;7.65;;
66342;SDS011;53144;51.524;5.080;2023-09-18T04:21:42;13.43;;;7.82;;
66342;SDS011;53144;51.524;5.080;2023-09-18T04:24:07;11.00;;;7.72;;
66342;SDS011;53144;51.524;5.080;2023-09-18T04:26:33;12.52;;;7.50;;
66342;SDS011;53144;51.524;5.080;2023-09-18T04:28:58;12.20;;;7.40;;
66342;SDS011;53144;51.524;5.080;2023-09-18T04:31:25;9.57;;;7.15;;
66342;SDS011;53144;51.524;5.080;2023-09-18T04:33:50;9.63;;;7.40;;
66342;SDS011;53144;51.524;5.080;2023-09-18T04:36:16;9.93;;;7.30;;
66342;SDS011;53144;51.524;5.080;2023-09-18T04:38:41;13.95;;;7.38;;
66342;SDS011;53144;51.524;5.080;2023-09-18T04:41:06;10.18;;;7.93;;
66342;SDS011;53144;51.524;5.080;2023-09-18T04:43:35;10.02;;;7.80;;
66342;SDS011;53144;51.524;5.080;2023-09-18T04:46:01;14.45;;;7.97;;
66342;SDS011;53144;51.524;5.080;2023-09-18T04:48:30;10.95;;;7.75;;
66342;SDS011;53144;51.524;5.080;2023-09-18T04:50:57;11.38;;;8.07;;
66342;SDS011;53144;51.524;5.080;2023-09-18T04:53:23;13.43;;;7.95;;
66342;SDS011;53144;51.524;5.080;2023-09-18T04:55:48;10.88;;;7.45;;
66342;SDS011;53144;51.524;5.080;2023-09-18T04:58:15;10.48;;;7.97;;
66342;SDS011;53144;51.524;5.080;2023-09-18T05:00:41;9.90;;;7.72;;
66342;SDS011;53144;51.524;5.080;2023-09-18T05:03:07;13.30;;;7.85;;
66342;SDS011;53144;51.524;5.080;2023-09-18T05:05:33;9.48;;;7.28;;
66342;SDS011;53144;51.524;5.080;2023-09-18T05:08:05;10.02;;;7.90;;
66342;SDS011;53144;51.524;5.080;2023-09-18T05:10:36;15.45;;;7.15;;
66342;SDS011;53144;51.524;5.080;2023-09-18T05:13:02;12.48;;;7.18;;
66342;SDS011;53144;51.524;5.080;2023-09-18T05:15:28;11.20;;;7.80;;
66342;SDS011;53144;51.524;5.080;2023-09-18T05:17:54;11.05;;;7.47;;
66342;SDS011;53144;51.524;5.080;2023-09-18T05:20:22;14.80;;;7.50;;
66342;SDS011;53144;51.524;5.080;2023-09-18T05:22:53;8.98;;;6.85;;
66342;SDS011;53144;51.524;5.080;2023-09-18T05:25:19;9.48;;;7.07;;
66342;SDS011;53144;51.524;5.080;2023-09-18T05:27:46;12.05;;;7.30;;
66342;SDS011;53144;51.524;5.080;2023-09-18T05:30:18;11.30;;;6.53;;
66342;SDS011;53144;51.524;5.080;2023-09-18T05:32:46;11.88;;;7.05;;
66342;SDS011;53144;51.524;5.080;2023-09-18T05:35:13;9.38;;;6.35;;
66342;SDS011;53144;51.524;5.080;2023-09-18T05:37:38;13.32;;;7.07;;
66342;SDS011;53144;51.524;5.080;2023-09-18T05:40:06;9.95;;;6.72;;
66342;SDS011;53144;51.524;5.080;2023-09-18T05:42:34;9.80;;;6.15;;
66342;SDS011;53144;51.524;5.080;2023-09-18T05:45:01;10.35;;;6.20;;
66342;SDS011;53144;51.524;5.080;2023-09-18T05:47:27;8.38;;;5.82;;
66342;SDS011;53144;51.524;5.080;2023-09-18T05:49:52;8.05;;;5.82;;
66342;SDS011;53144;51.524;5.080;2023-09-18T05:52:17;7.07;;;5.50;;
66342;SDS011;53144;51.524;5.080;2023-09-18T05:54:43;10.40;;;5.18;;
66342;SDS011;53144;51.524;5.080;2023-09-18T05:57:08;8.98;;;5.60;;
66342;SDS011;53144;51.524;5.080;2023-09-18T05:59:34;6.40;;;5.20;;
66342;SDS011;53144;51.524;5.080;2023-09-18T06:01:59;7.95;;;5.03;;
66342;SDS011;53144;51.524;5.080;2023-09-18T06:04:24;8.20;;;4.93;;
66342;SDS011;53144;51.524;5.080;2023-09-18T06:06:50;8.95;;;4.85;;
66342;SDS011;53144;51.524;5.080;2023-09-18T06:09:16;6.40;;;4.18;;
66342;SDS011;53144;51.524;5.080;2023-09-18T06:11:41;5.82;;;4.03;;
66342;SDS011;53144;51.524;5.080;2023-09-18T06:14:07;7.90;;;4.10;;
66342;SDS011;53144;51.524;5.080;2023-09-18T06:16:33;6.00;;;3.90;;
66342;SDS011;53144;51.524;5.080;2023-09-18T06:18:58;5.70;;;4.05;;
66342;SDS011;53144;51.524;5.080;2023-09-18T06:21:25;3.88;;;3.38;;
66342;SDS011;53144;51.524;5.080;2023-09-18T06:23:50;7.45;;;3.65;;
66342;SDS011;53144;51.524;5.080;2023-09-18T06:26:16;8.05;;;3.65;;
66342;SDS011;53144;51.524;5.080;2023-09-18T06:28:42;6.78;;;3.13;;
66342;SDS011;53144;51.524;5.080;2023-09-18T06:31:08;3.92;;;2.80;;
66342;SDS011;53144;51.524;5.080;2023-09-18T06:33:36;5.45;;;2.92;;
66342;SDS011;53144;51.524;5.080;2023-09-18T06:36:01;5.68;;;2.90;;
66342;SDS011;53144;51.524;5.080;2023-09-18T06:38:28;5.65;;;2.53;;
66342;SDS011;53144;51.524;5.080;2023-09-18T06:40:53;3.20;;;2.47;;
66342;SDS011;53144;51.524;5.080;2023-09-18T06:43:20;4.57;;;2.80;;
66342;SDS011;53144;51.524;5.080;2023-09-18T06:45:45;3.38;;;2.10;;
66342;SDS011;53144;51.524;5.080;2023-09-18T06:48:11;5.10;;;2.42;;
66342;SDS011;53144;51.524;5.080;2023-09-18T06:50:36;3.17;;;1.73;;
66342;SDS011;53144;51.524;5.080;2023-09-18T06:53:03;4.32;;;2.05;;
66342;SDS011;53144;51.524;5.080;2023-09-18T06:55:29;2.42;;;1.63;;
66342;SDS011;53144;51.524;5.080;2023-09-18T06:57:54;3.92;;;2.10;;
66342;SDS011;53144;51.524;5.080;2023-09-18T07:00:20;3.25;;;1.52;;
66342;SDS011;53144;51.524;5.080;2023-09-18T07:02:45;3.88;;;1.77;;
66342;SDS011;53144;51.524;5.080;2023-09-18T07:05:11;4.18;;;1.90;;
66342;SDS011;53144;51.524;5.080;2023-09-18T07:07:37;4.45;;;2.00;;
66342;SDS011;53144;51.524;5.080;2023-09-18T07:10:02;5.40;;;1.85;;
66342;SDS011;53144;51.524;5.080;2023-09-18T07:12:28;1.70;;;1.60;;
66342;SDS011;53144;51.524;5.080;2023-09-18T07:14:53;4.07;;;1.67;;
66342;SDS011;53144;51.524;5.080;2023-09-18T07:17:18;3.53;;;2.05;;
66342;SDS011;53144;51.524;5.080;2023-09-18T07:19:44;6.20;;;2.05;;
66342;SDS011;53144;51.524;5.080;2023-09-18T07:22:09;3.88;;;2.00;;
66342;SDS011;53144;51.524;5.080;2023-09-18T07:24:35;6.32;;;2.08;;
66342;SDS011;53144;51.524;5.080;2023-09-18T07:27:00;3.47;;;1.90;;
66342;SDS011;53144;51.524;5.080;2023-09-18T07:29:27;2.85;;;1.70;;
66342;SDS011;53144;51.524;5.080;2023-09-18T07:31:55;7.10;;;1.92;;
66342;SDS011;53144;51.524;5.080;2023-09-18T07:34:20;3.30;;;1.95;;
66342;SDS011;53144;51.524;5.080;2023-09-18T07:36:46;5.10;;;1.73;;
66342;SDS011;53144;51.524;5.080;2023-09-18T07:39:19;3.58;;;1.90;;
66342;SDS011;53144;51.524;5.080;2023-09-18T07:41:45;1.77;;;1.60;;
66342;SDS011;53144;51.524;5.080;2023-09-18T07:44:10;3.75;;;1.85;;
66342;SDS011;53144;51.524;5.080;2023-09-18T07:46:36;3.03;;;1.90;;
66342;SDS011;53144;51.524;5.080;2023-09-18T07:49:02;1.83;;;1.67;;
66342;SDS011;53144;51.524;5.080;2023-09-18T07:51:27;3.10;;;1.75;;
66342;SDS011;53144;51.524;5.080;2023-09-18T07:53:52;2.40;;;1.80;;
66342;SDS011;53144;51.524;5.080;2023-09-18T07:56:21;2.75;;;1.60;;
66342;SDS011;53144;51.524;5.080;2023-09-18T07:58:46;5.15;;;1.80;;
66342;SDS011;53144;51.524;5.080;2023-09-18T08:01:12;6.55;;;1.92;;
66342;SDS011;53144;51.524;5.080;2023-09-18T08:03:41;4.35;;;1.80;;
66342;SDS011;53144;51.524;5.080;2023-09-18T08:06:07;2.20;;;1.70;;
66342;SDS011;53144;51.524;5.080;2023-09-18T08:08:32;3.40;;;1.52;;
66342;SDS011;53144;51.524;5.080;2023-09-18T08:11:00;3.40;;;1.60;;
66342;SDS011;53144;51.524;5.080;2023-09-18T08:13:33;4.10;;;1.83;;
66342;SDS011;53144;51.524;5.080;2023-09-18T08:15:59;6.22;;;1.95;;
66342;SDS011;53144;51.524;5.080;2023-09-18T08:18:26;4.07;;;1.60;;
66342;SDS011;53144;51.524;5.080;2023-09-18T08:20:52;3.03;;;2.00;;
66342;SDS011;53144;51.524;5.080;2023-09-18T08:23:19;5.57;;;1.80;;
66342;SDS011;53144;51.524;5.080;2023-09-18T08:25:44;4.30;;;1.80;;
66342;SDS011;53144;51.524;5.080;2023-09-18T08:28:10;3.10;;;1.85;;
66342;SDS011;53144;51.524;5.080;2023-09-18T08:30:35;3.75;;;2.20;;
66342;SDS011;53144;51.524;5.080;2023-09-18T08:33:04;4.38;;;2.10;;
66342;SDS011;53144;51.524;5.080;2023-09-18T08:35:30;2.10;;;1.90;;
66342;SDS011;53144;51.524;5.080;2023-09-18T08:37:57;4.90;;;1.92;;
66342;SDS011;53144;51.524;5.080;2023-09-18T08:40:23;3.55;;;1.80;;
66342;SDS011;53144;51.524;5.080;2023-09-18T08:42:49;5.47;;;2.10;;
66342;SDS011;53144;51.524;5.080;2023-09-18T08:48:05;4.60;;;2.10;;
66342;SDS011;53144;51.524;5.080;2023-09-18T08:50:31;6.07;;;1.92;;
66342;SDS011;53144;51.524;5.080;2023-09-18T08:52:58;3.35;;;1.70;;
66342;SDS011;53144;51.524;5.080;2023-09-18T08:55:24;2.92;;;2.00;;
66342;SDS011;53144;51.524;5.080;2023-09-18T08:57:50;3.45;;;1.98;;
66342;SDS011;53144;51.524;5.080;2023-09-18T09:00:18;4.13;;;2.10;;
66342;SDS011;53144;51.524;5.080;2023-09-18T09:02:44;3.17;;;1.90;;
66342;SDS011;53144;51.524;5.080;2023-09-18T09:05:10;4.60;;;2.10;;
66342;SDS011;53144;51.524;5.080;2023-09-18T09:07:36;4.50;;;2.03;;
66342;SDS011;53144;51.524;5.080;2023-09-18T09:10:02;5.35;;;2.30;;
66342;SDS011;53144;51.524;5.080;2023-09-18T09:15:13;3.83;;;2.13;;
66342;SDS011;53144;51.524;5.080;2023-09-18T09:17:39;4.20;;;2.08;;
66342;SDS011;53144;51.524;5.080;2023-09-18T09:20:11;4.20;;;2.50;;
66342;SDS011;53144;51.524;5.080;2023-09-18T09:22:38;6.75;;;2.60;;
66342;SDS011;53144;51.524;5.080;2023-09-18T09:25:21;6.75;;;2.47;;
66342;SDS011;53144;51.524;5.080;2023-09-18T09:27:53;6.28;;;2.40;;
66342;SDS011;53144;51.524;5.080;2023-09-18T09:30:22;4.43;;;2.63;;
66342;SDS011;53144;51.524;5.080;2023-09-18T09:32:49;6.10;;;2.60;;
66342;SDS011;53144;51.524;5.080;2023-09-18T09:35:26;3.42;;;2.13;;
66342;SDS011;53144;51.524;5.080;2023-09-18T09:37:56;3.53;;;2.30;;
66342;SDS011;53144;51.524;5.080;2023-09-18T09:40:24;7.38;;;2.25;;
66342;SDS011;53144;51.524;5.080;2023-09-18T09:42:51;6.85;;;2.55;;
66342;SDS011;53144;51.524;5.080;2023-09-18T09:45:19;3.50;;;2.28;;
66342;SDS011;53144;51.524;5.080;2023-09-18T09:47:45;8.40;;;2.60;;
66342;SDS011;53144;51.524;5.080;2023-09-18T09:50:11;4.47;;;2.35;;
66342;SDS011;53144;51.524;5.080;2023-09-18T09:52:48;7.18;;;2.50;;
66342;SDS011;53144;51.524;5.080;2023-09-18T09:55:25;4.68;;;2.30;;
66342;SDS011;53144;51.524;5.080;2023-09-18T09:57:55;5.38;;;2.50;;
66342;SDS011;53144;51.524;5.080;2023-09-18T10:00:45;8.23;;;2.55;;
66342;SDS011;53144;51.524;5.080;2023-09-18T10:03:18;4.35;;;2.45;;
66342;SDS011;53144;51.524;5.080;2023-09-18T10:05:46;6.97;;;2.83;;
66342;SDS011;53144;51.524;5.080;2023-09-18T10:08:16;6.80;;;2.80;;
66342;SDS011;53144;51.524;5.080;2023-09-18T10:10:54;6.63;;;2.25;;
66342;SDS011;53144;51.524;5.080;2023-09-18T10:15:56;6.13;;;2.95;;
66342;SDS011;53144;51.524;5.080;2023-09-18T10:18:28;7.25;;;2.78;;
66342;SDS011;53144;51.524;5.080;2023-09-18T10:24:02;3.45;;;2.40;;
66342;SDS011;53144;51.524;5.080;2023-09-18T10:26:35;6.25;;;2.80;;
66342;SDS011;53144;51.524;5.080;2023-09-18T10:29:08;6.85;;;2.75;;
66342;SDS011;53144;51.524;5.080;2023-09-18T10:31:36;6.15;;;3.25;;
66342;SDS011;53144;51.524;5.080;2023-09-18T10:34:05;4.97;;;2.80;;
66342;SDS011;53144;51.524;5.080;2023-09-18T10:36:31;4.95;;;3.05;;
66342;SDS011;53144;51.524;5.080;2023-09-18T10:38:58;6.88;;;2.58;;
66342;SDS011;53144;51.524;5.080;2023-09-18T10:41:27;4.68;;;2.95;;
66342;SDS011;53144;51.524;5.080;2023-09-18T10:43:53;9.30;;;3.38;;
66342;SDS011;53144;51.524;5.080;2023-09-18T10:46:22;8.43;;;3.30;;
66342;SDS011;53144;51.524;5.080;2023-09-18T10:48:49;7.13;;;2.78;;
66342;SDS011;53144;51.524;5.080;2023-09-18T10:51:15;4.72;;;2.80;;
66342;SDS011;53144;51.524;5.080;2023-09-18T10:53:48;7.03;;;3.20;;
66342;SDS011;53144;51.524;5.080;2023-09-18T10:56:14;8.18;;;3.15;;
66342;SDS011;53144;51.524;5.080;2023-09-18T10:58:41;8.40;;;2.58;;
66342;SDS011;53144;51.524;5.080;2023-09-18T11:01:09;7.75;;;2.90;;
66342;SDS011;53144;51.524;5.080;2023-09-18T11:03:37;7.97;;;2.85;;
66342;SDS011;53144;51.524;5.080;2023-09-18T11:06:06;10.93;;;2.97;;
66342;SDS011;53144;51.524;5.080;2023-09-18T11:08:43;6.07;;;3.20;;
66342;SDS011;53144;51.524;5.080;2023-09-18T11:11:11;4.23;;;2.60;;
66342;SDS011;53144;51.524;5.080;2023-09-18T11:13:42;3.60;;;2.70;;
66342;SDS011;53144;51.524;5.080;2023-09-18T11:21:24;4.95;;;2.80;;
66342;SDS011;53144;51.524;5.080;2023-09-18T11:23:57;7.05;;;2.90;;
66342;SDS011;53144;51.524;5.080;2023-09-18T11:26:24;4.78;;;2.70;;
66342;SDS011;53144;51.524;5.080;2023-09-18T11:28:53;4.65;;;2.80;;
66342;SDS011;53144;51.524;5.080;2023-09-18T11:31:19;7.85;;;2.90;;
66342;SDS011;53144;51.524;5.080;2023-09-18T11:33:47;5.68;;;3.10;;
66342;SDS011;53144;51.524;5.080;2023-09-18T11:36:33;5.25;;;2.60;;
66342;SDS011;53144;51.524;5.080;2023-09-18T11:38:59;6.32;;;2.80;;
66342;SDS011;53144;51.524;5.080;2023-09-18T11:41:30;7.93;;;2.85;;
66342;SDS011;53144;51.524;5.080;2023-09-18T11:46:32;4.50;;;2.60;;
66342;SDS011;53144;51.524;5.080;2023-09-18T11:48:58;8.65;;;2.78;;
66342;SDS011;53144;51.524;5.080;2023-09-18T11:51:24;9.13;;;2.70;;
66342;SDS011;53144;51.524;5.080;2023-09-18T11:53:54;4.75;;;2.80;;
66342;SDS011;53144;51.524;5.080;2023-09-18T11:56:20;4.22;;;2.55;;
66342;SDS011;53144;51.524;5.080;2023-09-18T11:58:47;7.88;;;2.92;;
66342;SDS011;53144;51.524;5.080;2023-09-18T12:01:13;6.20;;;2.78;;
66342;SDS011;53144;51.524;5.080;2023-09-18T12:03:40;8.15;;;2.90;;
66342;SDS011;53144;51.524;5.080;2023-09-18T12:06:05;6.85;;;2.75;;
66342;SDS011;53144;51.524;5.080;2023-09-18T12:08:32;7.05;;;2.75;;
66342;SDS011;53144;51.524;5.080;2023-09-18T12:10:58;4.95;;;2.60;;
66342;SDS011;53144;51.524;5.080;2023-09-18T12:13:27;8.00;;;2.80;;
66342;SDS011;53144;51.524;5.080;2023-09-18T12:15:59;6.00;;;2.72;;
66342;SDS011;53144;51.524;5.080;2023-09-18T12:18:32;5.57;;;2.70;;
66342;SDS011;53144;51.524;5.080;2023-09-18T12:21:00;4.50;;;2.80;;
66342;SDS011;53144;51.524;5.080;2023-09-18T12:23:29;4.75;;;2.70;;
66342;SDS011;53144;51.524;5.080;2023-09-18T12:26:01;4.78;;;2.50;;
66342;SDS011;53144;51.524;5.080;2023-09-18T12:28:26;7.05;;;2.63;;
66342;SDS011;53144;51.524;5.080;2023-09-18T12:30:55;3.33;;;2.10;;
66342;SDS011;53144;51.524;5.080;2023-09-18T12:33:25;4.47;;;2.50;;
66342;SDS011;53144;51.524;5.080;2023-09-18T12:35:51;4.55;;;2.45;;
66342;SDS011;53144;51.524;5.080;2023-09-18T12:38:18;4.75;;;2.00;;
66342;SDS011;53144;51.524;5.080;2023-09-18T12:40:51;4.95;;;2.30;;
66342;SDS011;53144;51.524;5.080;2023-09-18T12:43:18;4.28;;;2.30;;
66342;SDS011;53144;51.524;5.080;2023-09-18T12:45:44;4.07;;;1.90;;
66342;SDS011;53144;51.524;5.080;2023-09-18T12:48:11;2.53;;;2.00;;
66342;SDS011;53144;51.524;5.080;2023-09-18T12:50:37;3.25;;;2.13;;
66342;SDS011;53144;51.524;5.080;2023-09-18T12:53:09;4.25;;;2.45;;
66342;SDS011;53144;51.524;5.080;2023-09-18T12:55:35;2.92;;;2.20;;
66342;SDS011;53144;51.524;5.080;2023-09-18T12:58:01;4.25;;;1.95;;
66342;SDS011;53144;51.524;5.080;2023-09-18T13:00:32;2.42;;;1.95;;
66342;SDS011;53144;51.524;5.080;2023-09-18T13:02:58;4.95;;;2.20;;
66342;SDS011;53144;51.524;5.080;2023-09-18T13:05:23;5.60;;;1.80;;
66342;SDS011;53144;51.524;5.080;2023-09-18T13:08:00;4.82;;;2.20;;
66342;SDS011;53144;51.524;5.080;2023-09-18T13:10:27;6.38;;;2.60;;
66342;SDS011;53144;51.524;5.080;2023-09-18T13:12:53;3.60;;;2.03;;
66342;SDS011;53144;51.524;5.080;2023-09-18T13:15:29;4.88;;;2.15;;
66342;SDS011;53144;51.524;5.080;2023-09-18T13:17:57;4.03;;;2.05;;
66342;SDS011;53144;51.524;5.080;2023-09-18T13:20:28;4.82;;;1.85;;
66342;SDS011;53144;51.524;5.080;2023-09-18T13:22:55;4.75;;;2.20;;
66342;SDS011;53144;51.524;5.080;2023-09-18T13:25:25;3.58;;;2.00;;
66342;SDS011;53144;51.524;5.080;2023-09-18T13:27:54;4.68;;;2.22;;
66342;SDS011;53144;51.524;5.080;2023-09-18T13:30:19;2.85;;;2.20;;
66342;SDS011;53144;51.524;5.080;2023-09-18T13:32:47;3.17;;;1.95;;
66342;SDS011;53144;51.524;5.080;2023-09-18T13:35:14;5.63;;;1.98;;
66342;SDS011;53144;51.524;5.080;2023-09-18T13:37:40;4.80;;;2.00;;
66342;SDS011;53144;51.524;5.080;2023-09-18T13:40:06;4.40;;;2.00;;
66342;SDS011;53144;51.524;5.080;2023-09-18T13:42:33;3.67;;;1.90;;
66342;SDS011;53144;51.524;5.080;2023-09-18T13:44:59;4.57;;;1.77;;
66342;SDS011;53144;51.524;5.080;2023-09-18T13:47:34;2.80;;;1.90;;
66342;SDS011;53144;51.524;5.080;2023-09-18T13:50:01;3.83;;;2.08;;
66342;SDS011;53144;51.524;5.080;2023-09-18T13:52:31;2.95;;;1.75;;
66342;SDS011;53144;51.524;5.080;2023-09-18T13:54:59;3.72;;;2.00;;
66342;SDS011;53144;51.524;5.080;2023-09-18T13:57:25;3.55;;;1.88;;
66342;SDS011;53144;51.524;5.080;2023-09-18T13:59:51;3.15;;;1.77;;
66342;SDS011;53144;51.524;5.080;2023-09-18T14:02:17;2.15;;;1.83;;
66342;SDS011;53144;51.524;5.080;2023-09-18T14:04:43;2.75;;;1.75;;
66342;SDS011;53144;51.524;5.080;2023-09-18T14:07:10;3.58;;;1.83;;
66342;SDS011;53144;51.524;5.080;2023-09-18T14:09:36;3.50;;;1.90;;
66342;SDS011;53144;51.524;5.080;2023-09-18T14:12:03;3.85;;;1.80;;
66342;SDS011;53144;51.524;5.080;2023-09-18T14:14:29;2.28;;;1.90;;
66342;SDS011;53144;51.524;5.080;2023-09-18T14:16:54;3.47;;;1.70;;
66342;SDS011;53144;51.524;5.080;2023-09-18T14:19:20;6.50;;;1.83;;
66342;SDS011;53144;51.524;5.080;2023-09-18T14:21:46;3.08;;;1.83;;
66342;SDS011;53144;51.524;5.080;2023-09-18T14:24:14;3.58;;;1.70;;
66342;SDS011;53144;51.524;5.080;2023-09-18T14:26:43;4.10;;;2.13;;
66342;SDS011;53144;51.524;5.080;2023-09-18T14:29:08;3.88;;;2.00;;
66342;SDS011;53144;51.524;5.080;2023-09-18T14:31:38;8.40;;;1.60;;
66342;SDS011;53144;51.524;5.080;2023-09-18T14:34:04;5.75;;;2.13;;
66342;SDS011;53144;51.524;5.080;2023-09-18T14:36:36;4.53;;;1.95;;
66342;SDS011;53144;51.524;5.080;2023-09-18T14:39:04;10.63;;;2.00;;
66342;SDS011;53144;51.524;5.080;2023-09-18T14:41:30;5.53;;;1.98;;
66342;SDS011;53144;51.524;5.080;2023-09-18T14:43:55;3.60;;;1.73;;
66342;SDS011;53144;51.524;5.080;2023-09-18T14:46:23;5.25;;;1.80;;
66342;SDS011;53144;51.524;5.080;2023-09-18T14:48:49;3.33;;;1.63;;
66342;SDS011;53144;51.524;5.080;2023-09-18T14:51:15;8.70;;;1.85;;
66342;SDS011;53144;51.524;5.080;2023-09-18T14:53:40;5.05;;;1.30;;
66342;SDS011;53144;51.524;5.080;2023-09-18T14:56:05;16.10;;;3.30;;
66342;SDS011;53144;51.524;5.080;2023-09-18T14:58:31;9.10;;;1.70;;
66342;SDS011;53144;51.524;5.080;2023-09-18T15:00:57;3.78;;;1.50;;